Airport ID:KN38
Update Time (UTC):09/05/2021 11:23
Wind Speed (Knots):3
Wind Direction (Magnetic):250
Temperature (°C):0
Dew Point (°C):0
Humidity (%):100
Altimeter (inHg):30.04
Density Altitude (Feet):
Visibility:<.25
Clouds (Hundreds of feet):VV000
Present Weather:FZFG
METAR:METAR KN38 091120Z AUTO 00000KT M1/4SM FZFG VV000 M00/M00 A3004 RMK AO2

The data displayed is for advisory purposes only and is not to be used for flight planning or operations.